Depesze METAR lotnisk w Polsce

METAR – format kodowanego raportu o pogodzie używany w meteorologii lotniczej i prognozie pogody. METAR jest akronimem od ang. Meteorological Aerodrome Report. Typowy METAR zawiera informację o temperaturze, ciśnieniu, temperaturze punktu rosy, sile i kierunku wiatru, opadzie, pokrywie chmur, wysokości podstawy chmur, widzialności, lecz może zawierać też inne informacje (np. stan dróg startowych).

Warszawa-Okęcie (EPWA)

METAR = EPWA 200730Z VRB01KT 4200 BR NSC M06/M07 Q1018 NOSIG

STACJA......... EPWA - Warszawa-Okęcie (WAW)
POMIAR......... Sun Jan 20, 08:30 CET
WIATR.......... zmienny z prędkością 2 km/h
WIDZIALNOŚĆ.... 4200 metrów
WARUNKI........ zamglenie 
CHMURY......... brak istotnych chmur
TEMPERATURA.... -6°C
T.PUNKTU ROSY.. -7°C
WILGOTNOŚĆ..... 93%
CIŚNIENIE...... 1018 hPa
CIŚN.BEZWZGL... 1004 hPa
PROGNOZA....... bez nagłych zmian w ciągu 2h

Sprawdź też: Prognoza pogody Warszawa

Warszawa-Modlin (EPMO)

METAR = EPMO 200730Z VRB01KT 2500 BR NSC M07/M09 Q1018 =

STACJA......... EPMO - Warszawa-Modlin (WMI)
POMIAR......... Sun Jan 20, 08:30 CET
WIATR.......... zmienny z prędkością 2 km/h
WIDZIALNOŚĆ.... 2500 metrów
WARUNKI........ zamglenie 
CHMURY......... brak istotnych chmur
TEMPERATURA.... -7°C
T.PUNKTU ROSY.. -9°C
WILGOTNOŚĆ..... 86%
CIŚNIENIE...... 1018 hPa
CIŚN.BEZWZGL... 1005 hPa

Sprawdź też: Prognoza pogody Nowy Dwór Mazowiecki

Kraków-Balice (EPKK)

METAR = EPKK 200730Z 05004KT 4000 BR BKN060 M05/M07 Q1016

STACJA......... EPKK - Kraków-Balice (KRK)
POMIAR......... Sun Jan 20, 08:30 CET
WIATR.......... północno-wschodni (NE) z prędkością 7 km/h
WIDZIALNOŚĆ.... 4000 metrów
WARUNKI........ zamglenie 
CHMURY......... zachmurzenie średnie (5/8-7/8)
TEMPERATURA.... -5°C
T.PUNKTU ROSY.. -7°C
WILGOTNOŚĆ..... 86%
T.ODCZUWALNA... -8°C
CIŚNIENIE...... 1016 hPa
CIŚN.BEZWZGL... 986 hPa

Sprawdź też: Prognoza pogody Kraków

Łódź-Lublinek (EPLL)


  

Sprawdź też: Prognoza pogody Łódź

Wrocław-Strachowice (EPWR)

METAR = EPWR 200730Z VRB01KT 2500 MIFG BR NSC M08/M10 Q1018

STACJA......... EPWR - Wrocław-Strachowice (WRO)
POMIAR......... Sun Jan 20, 08:30 CET
WIATR.......... zmienny z prędkością 2 km/h
WIDZIALNOŚĆ.... 2500 metrów
WARUNKI........ niska mgła & zamglenie 
CHMURY......... brak istotnych chmur
TEMPERATURA.... -8°C
T.PUNKTU ROSY.. -10°C
WILGOTNOŚĆ..... 86%
CIŚNIENIE...... 1018 hPa
CIŚN.BEZWZGL... 1003 hPa

Sprawdź też: Prognoza pogody Wrocław

Katowice-Pyrzowice (EPKT)

METAR = EPKT 200730Z VRB01KT 5000 BR NSC M09/M10 Q1016

STACJA......... EPKT - Katowice-Pyrzowice (KTW)
POMIAR......... Sun Jan 20, 08:30 CET
WIATR.......... zmienny z prędkością 2 km/h
WIDZIALNOŚĆ.... 5000 metrów
WARUNKI........ zamglenie 
CHMURY......... brak istotnych chmur
TEMPERATURA.... -9°C
T.PUNKTU ROSY.. -10°C
WILGOTNOŚĆ..... 93%
CIŚNIENIE...... 1016 hPa
CIŚN.BEZWZGL... 979 hPa

Sprawdź też: Prognoza pogody Katowice

Gdańsk (EPGD)

METAR = EPGD 200730Z 23009KT 9999 FEW026 M03/M05 Q1016

STACJA......... EPGD - Gdańsk im. Lecha Wałęsy (GDN)
POMIAR......... Sun Jan 20, 08:30 CET
WIATR.......... południowo-zachodni (SW) z prędkością 17 km/h
WIDZIALNOŚĆ.... powyżej 10 kilometrów
CHMURY......... zachmurzenie niewielkie (1/8-2/8)
TEMPERATURA.... -3°C
T.PUNKTU ROSY.. -5°C
WILGOTNOŚĆ..... 86%
T.ODCZUWALNA... -8°C
CIŚNIENIE...... 1016 hPa
CIŚN.BEZWZGL... 997 hPa

Sprawdź też: Prognoza pogody Gdańsk

Poznań-Ławica (EPPO)

METAR = EPPO 200730Z 05003KT 3000 BR NSC M08/M09 Q1018

STACJA......... EPPO - Poznań-Ławica (POZ)
POMIAR......... Sun Jan 20, 08:30 CET
WIATR.......... północno-wschodni (NE) z prędkością 6 km/h
WIDZIALNOŚĆ.... 3000 metrów
WARUNKI........ zamglenie 
CHMURY......... brak istotnych chmur
TEMPERATURA.... -8°C
T.PUNKTU ROSY.. -9°C
WILGOTNOŚĆ..... 93%
T.ODCZUWALNA... -11°C
CIŚNIENIE...... 1018 hPa
CIŚN.BEZWZGL... 1006 hPa

Sprawdź też: Prognoza pogody Poznań

Rzeszów-Jasionka (EPRZ)

METAR = EPRZ 200730Z 06004KT 6000 NSC M06/M07 Q1017

STACJA......... EPRZ - Rzeszów-Jasionka (RZE)
POMIAR......... Sun Jan 20, 08:30 CET
WIATR.......... wschodni północno-wschodni (ENE) z prędkością 7 km/h
WIDZIALNOŚĆ.... 6000 metrów
CHMURY......... brak istotnych chmur
TEMPERATURA.... -6°C
T.PUNKTU ROSY.. -7°C
WILGOTNOŚĆ..... 93%
T.ODCZUWALNA... -9°C
CIŚNIENIE...... 1017 hPa
CIŚN.BEZWZGL... 991 hPa

Sprawdź też: Prognoza pogody Rzeszów

Szczecin-Goleniów (EPSC)

METAR = EPSC 200730Z VRB03KT 9999 FEW003 OVC005 M04/M05 Q1019

STACJA......... EPSC - Szczecin-Goleniów (SZZ)
POMIAR......... Sun Jan 20, 08:30 CET
WIATR.......... zmienny z prędkością 6 km/h
WIDZIALNOŚĆ.... powyżej 10 kilometrów
CHMURY......... zachmurzenie całkowite (8/8)
TEMPERATURA.... -4°C
T.PUNKTU ROSY.. -5°C
WILGOTNOŚĆ..... 93%
T.ODCZUWALNA... -6°C
CIŚNIENIE...... 1019 hPa
CIŚN.BEZWZGL... 1013 hPa

Sprawdź też: Prognoza pogody Szczecin

Lublin-Świdnik (EPLB)

METAR = EPLB 200730Z VRB01KT 2500 BR NSC M09/M09 Q1018 =

STACJA......... EPLB - Lublin-Świdnik (LUZ)
POMIAR......... Sun Jan 20, 08:30 CET
WIATR.......... zmienny z prędkością 2 km/h
WIDZIALNOŚĆ.... 2500 metrów
WARUNKI........ zamglenie 
CHMURY......... brak istotnych chmur
TEMPERATURA.... -9°C
T.PUNKTU ROSY.. -9°C
WILGOTNOŚĆ..... 100%
CIŚNIENIE...... 1018 hPa
CIŚN.BEZWZGL... 993 hPa

Sprawdź też: Prognoza pogody Lublin

Bydgoszcz-Szwederowo (EPBY)

METAR = EPBY 200730Z 21004KT 180V250 9999 OVC013 M02/M05 Q1018 =

STACJA......... EPBY - Bydgoszcz-Szwederowo (BZG)
POMIAR......... Sun Jan 20, 08:30 CET
WIATR.......... południowo południowo-zachodni  (SSW) z prędkością 7 km/h
WIDZIALNOŚĆ.... powyżej 10 kilometrów
CHMURY......... zachmurzenie całkowite (8/8)
TEMPERATURA.... -2°C
T.PUNKTU ROSY.. -5°C
WILGOTNOŚĆ..... 80%
T.ODCZUWALNA... -5°C
CIŚNIENIE...... 1018 hPa
CIŚN.BEZWZGL... 1009 hPa

Sprawdź też: Prognoza pogody Bydgoszcz

Zielona Góra-Babimost (EPZG)

METAR = EPZG 200730Z 00000KT 1800 BR NSC M10/M10 Q1019 =

STACJA......... EPZG - Zielona Góra-Babimost (IEG)
POMIAR......... Sun Jan 20, 08:30 CET
WIATR.......... bezwietrznie
WIDZIALNOŚĆ.... 1800 metrów
WARUNKI........ zamglenie 
CHMURY......... brak istotnych chmur
TEMPERATURA.... -10°C
T.PUNKTU ROSY.. -10°C
WILGOTNOŚĆ..... 100%
CIŚNIENIE...... 1019 hPa
CIŚN.BEZWZGL... 1012 hPa

Sprawdź też: Prognoza pogody Zielona Góra

Szymany Olsztyn-Mazury (EPSY)

METAR = EPSY 200730Z NIL=

STACJA......... EPSY - Olsztyn-Mazury (SZY)
POMIAR......... Sun Jan 20, 08:30 CET
DEPESZA........ brak aktualnej prognozy w treści depeszy

Sprawdź też: Prognoza pogody Olsztyn